sensor_id;sensor_type;location;lat;lon;timestamp;P1;durP1;ratioP1;P2;durP2;ratioP2
26086;SDS011;13851;43.434;28.338;2023-03-23T00:02:30;10.77;;;9.68;;
26086;SDS011;13851;43.434;28.338;2023-03-23T00:05:04;11.85;;;9.82;;
26086;SDS011;13851;43.434;28.338;2023-03-23T00:07:34;10.52;;;9.55;;
26086;SDS011;13851;43.434;28.338;2023-03-23T00:10:00;10.73;;;9.45;;
26086;SDS011;13851;43.434;28.338;2023-03-23T00:12:28;11.20;;;10.07;;
26086;SDS011;13851;43.434;28.338;2023-03-23T00:15:07;13.93;;;11.52;;
26086;SDS011;13851;43.434;28.338;2023-03-23T00:17:37;13.13;;;11.75;;
26086;SDS011;13851;43.434;28.338;2023-03-23T00:20:05;14.18;;;12.70;;
26086;SDS011;13851;43.434;28.338;2023-03-23T00:22:31;14.25;;;12.40;;
26086;SDS011;13851;43.434;28.338;2023-03-23T00:25:02;18.15;;;13.93;;
26086;SDS011;13851;43.434;28.338;2023-03-23T00:27:28;16.48;;;14.02;;
26086;SDS011;13851;43.434;28.338;2023-03-23T00:29:54;16.73;;;13.65;;
26086;SDS011;13851;43.434;28.338;2023-03-23T00:32:20;16.58;;;14.43;;
26086;SDS011;13851;43.434;28.338;2023-03-23T00:34:57;16.58;;;14.70;;
26086;SDS011;13851;43.434;28.338;2023-03-23T00:37:26;17.95;;;13.77;;
26086;SDS011;13851;43.434;28.338;2023-03-23T00:39:51;16.80;;;14.25;;
26086;SDS011;13851;43.434;28.338;2023-03-23T00:42:22;15.95;;;13.48;;
26086;SDS011;13851;43.434;28.338;2023-03-23T00:44:48;17.92;;;14.82;;
26086;SDS011;13851;43.434;28.338;2023-03-23T00:47:14;18.20;;;14.77;;
26086;SDS011;13851;43.434;28.338;2023-03-23T00:49:42;16.75;;;14.43;;
26086;SDS011;13851;43.434;28.338;2023-03-23T00:52:09;17.67;;;15.35;;
26086;SDS011;13851;43.434;28.338;2023-03-23T00:54:35;21.55;;;17.25;;
26086;SDS011;13851;43.434;28.338;2023-03-23T00:57:02;20.05;;;17.60;;
26086;SDS011;13851;43.434;28.338;2023-03-23T00:59:29;21.65;;;18.13;;
26086;SDS011;13851;43.434;28.338;2023-03-23T01:01:54;22.73;;;17.45;;
26086;SDS011;13851;43.434;28.338;2023-03-23T01:04:20;20.10;;;17.05;;
26086;SDS011;13851;43.434;28.338;2023-03-23T01:06:47;22.33;;;17.42;;
26086;SDS011;13851;43.434;28.338;2023-03-23T01:09:16;21.20;;;17.13;;
26086;SDS011;13851;43.434;28.338;2023-03-23T01:11:42;19.63;;;15.93;;
26086;SDS011;13851;43.434;28.338;2023-03-23T01:14:09;17.60;;;14.82;;
26086;SDS011;13851;43.434;28.338;2023-03-23T01:16:35;17.70;;;14.75;;
26086;SDS011;13851;43.434;28.338;2023-03-23T01:19:01;16.95;;;14.35;;
26086;SDS011;13851;43.434;28.338;2023-03-23T01:21:26;17.33;;;14.35;;
26086;SDS011;13851;43.434;28.338;2023-03-23T01:23:52;15.65;;;13.80;;
26086;SDS011;13851;43.434;28.338;2023-03-23T01:26:21;15.20;;;13.60;;
26086;SDS011;13851;43.434;28.338;2023-03-23T01:28:50;14.43;;;12.75;;
26086;SDS011;13851;43.434;28.338;2023-03-23T01:31:17;13.35;;;11.95;;
26086;SDS011;13851;43.434;28.338;2023-03-23T01:33:44;13.95;;;12.40;;
26086;SDS011;13851;43.434;28.338;2023-03-23T01:36:11;14.15;;;12.50;;
26086;SDS011;13851;43.434;28.338;2023-03-23T01:38:39;15.35;;;12.63;;
26086;SDS011;13851;43.434;28.338;2023-03-23T01:41:09;14.05;;;12.55;;
26086;SDS011;13851;43.434;28.338;2023-03-23T01:43:35;14.00;;;12.50;;
26086;SDS011;13851;43.434;28.338;2023-03-23T01:46:01;14.82;;;12.70;;
26086;SDS011;13851;43.434;28.338;2023-03-23T01:48:31;14.07;;;12.23;;
26086;SDS011;13851;43.434;28.338;2023-03-23T01:51:12;13.80;;;11.95;;
26086;SDS011;13851;43.434;28.338;2023-03-23T01:53:42;17.30;;;13.27;;
26086;SDS011;13851;43.434;28.338;2023-03-23T01:56:14;15.77;;;13.60;;
26086;SDS011;13851;43.434;28.338;2023-03-23T01:58:43;14.55;;;12.82;;
26086;SDS011;13851;43.434;28.338;2023-03-23T02:01:10;14.60;;;13.02;;
26086;SDS011;13851;43.434;28.338;2023-03-23T02:03:39;14.32;;;12.35;;
26086;SDS011;13851;43.434;28.338;2023-03-23T02:06:11;13.68;;;12.23;;
26086;SDS011;13851;43.434;28.338;2023-03-23T02:08:37;13.10;;;11.52;;
26086;SDS011;13851;43.434;28.338;2023-03-23T02:11:22;13.43;;;12.02;;
26086;SDS011;13851;43.434;28.338;2023-03-23T02:13:48;13.15;;;11.75;;
26086;SDS011;13851;43.434;28.338;2023-03-23T02:16:21;12.48;;;11.18;;
26086;SDS011;13851;43.434;28.338;2023-03-23T02:21:26;12.57;;;11.27;;
26086;SDS011;13851;43.434;28.338;2023-03-23T02:27:06;13.02;;;11.70;;
26086;SDS011;13851;43.434;28.338;2023-03-23T02:34:56;12.10;;;10.90;;
26086;SDS011;13851;43.434;28.338;2023-03-23T02:37:30;12.55;;;11.18;;
26086;SDS011;13851;43.434;28.338;2023-03-23T02:40:03;12.48;;;11.18;;
26086;SDS011;13851;43.434;28.338;2023-03-23T02:42:36;12.93;;;11.55;;
26086;SDS011;13851;43.434;28.338;2023-03-23T02:45:07;13.55;;;12.13;;
26086;SDS011;13851;43.434;28.338;2023-03-23T02:47:35;14.35;;;12.85;;
26086;SDS011;13851;43.434;28.338;2023-03-23T02:50:04;13.55;;;12.15;;
26086;SDS011;13851;43.434;28.338;2023-03-23T02:52:34;13.73;;;12.32;;
26086;SDS011;13851;43.434;28.338;2023-03-23T02:55:02;13.20;;;11.93;;
26086;SDS011;13851;43.434;28.338;2023-03-23T02:57:29;13.13;;;11.85;;
26086;SDS011;13851;43.434;28.338;2023-03-23T02:59:56;12.60;;;11.25;;
26086;SDS011;13851;43.434;28.338;2023-03-23T03:02:25;13.27;;;11.98;;
26086;SDS011;13851;43.434;28.338;2023-03-23T03:05:00;14.63;;;13.23;;
26086;SDS011;13851;43.434;28.338;2023-03-23T03:10:31;14.75;;;13.25;;
26086;SDS011;13851;43.434;28.338;2023-03-23T03:13:23;14.18;;;12.68;;
26086;SDS011;13851;43.434;28.338;2023-03-23T03:16:38;14.50;;;13.00;;
26086;SDS011;13851;43.434;28.338;2023-03-23T03:19:16;13.20;;;11.80;;
26086;SDS011;13851;43.434;28.338;2023-03-23T03:21:46;15.00;;;12.23;;
26086;SDS011;13851;43.434;28.338;2023-03-23T03:24:16;13.80;;;11.88;;
26086;SDS011;13851;43.434;28.338;2023-03-23T03:26:47;13.60;;;12.20;;
26086;SDS011;13851;43.434;28.338;2023-03-23T03:29:16;17.08;;;13.27;;
26086;SDS011;13851;43.434;28.338;2023-03-23T03:31:44;15.63;;;13.40;;
26086;SDS011;13851;43.434;28.338;2023-03-23T03:34:13;15.45;;;13.05;;
26086;SDS011;13851;43.434;28.338;2023-03-23T03:36:42;16.55;;;14.60;;
26086;SDS011;13851;43.434;28.338;2023-03-23T03:39:13;17.05;;;14.45;;
26086;SDS011;13851;43.434;28.338;2023-03-23T03:41:40;17.75;;;14.65;;
26086;SDS011;13851;43.434;28.338;2023-03-23T03:44:07;16.73;;;14.30;;
26086;SDS011;13851;43.434;28.338;2023-03-23T03:46:33;18.23;;;15.60;;
26086;SDS011;13851;43.434;28.338;2023-03-23T03:49:04;23.47;;;16.63;;
26086;SDS011;13851;43.434;28.338;2023-03-23T03:51:32;22.55;;;17.30;;
26086;SDS011;13851;43.434;28.338;2023-03-23T03:53:58;22.45;;;16.85;;
26086;SDS011;13851;43.434;28.338;2023-03-23T03:56:24;21.30;;;17.17;;
26086;SDS011;13851;43.434;28.338;2023-03-23T03:58:51;21.77;;;17.10;;
26086;SDS011;13851;43.434;28.338;2023-03-23T04:01:17;22.25;;;16.70;;
26086;SDS011;13851;43.434;28.338;2023-03-23T04:03:47;22.17;;;17.15;;
26086;SDS011;13851;43.434;28.338;2023-03-23T04:06:13;44.92;;;39.03;;
26086;SDS011;13851;43.434;28.338;2023-03-23T04:08:39;40.08;;;31.45;;
26086;SDS011;13851;43.434;28.338;2023-03-23T04:11:09;37.90;;;30.83;;
26086;SDS011;13851;43.434;28.338;2023-03-23T04:13:37;30.98;;;23.55;;
26086;SDS011;13851;43.434;28.338;2023-03-23T04:16:03;33.67;;;26.40;;
26086;SDS011;13851;43.434;28.338;2023-03-23T04:18:29;34.75;;;25.73;;
26086;SDS011;13851;43.434;28.338;2023-03-23T04:20:58;39.70;;;30.23;;
26086;SDS011;13851;43.434;28.338;2023-03-23T04:23:25;47.75;;;38.92;;
26086;SDS011;13851;43.434;28.338;2023-03-23T04:25:53;35.45;;;27.92;;
26086;SDS011;13851;43.434;28.338;2023-03-23T04:28:22;32.10;;;24.80;;
26086;SDS011;13851;43.434;28.338;2023-03-23T04:30:52;41.95;;;33.50;;
26086;SDS011;13851;43.434;28.338;2023-03-23T04:33:19;28.48;;;23.48;;
26086;SDS011;13851;43.434;28.338;2023-03-23T04:35:50;27.17;;;22.05;;
26086;SDS011;13851;43.434;28.338;2023-03-23T04:38:17;25.35;;;21.38;;
26086;SDS011;13851;43.434;28.338;2023-03-23T04:40:45;25.55;;;22.20;;
26086;SDS011;13851;43.434;28.338;2023-03-23T04:43:15;26.35;;;22.13;;
26086;SDS011;13851;43.434;28.338;2023-03-23T04:45:40;26.35;;;22.90;;
26086;SDS011;13851;43.434;28.338;2023-03-23T04:48:11;28.15;;;25.15;;
26086;SDS011;13851;43.434;28.338;2023-03-23T04:50:37;25.88;;;23.08;;
26086;SDS011;13851;43.434;28.338;2023-03-23T04:53:03;32.08;;;28.58;;
26086;SDS011;13851;43.434;28.338;2023-03-23T04:55:30;27.80;;;23.50;;
26086;SDS011;13851;43.434;28.338;2023-03-23T04:58:04;26.30;;;23.40;;
26086;SDS011;13851;43.434;28.338;2023-03-23T05:00:34;25.35;;;22.65;;
26086;SDS011;13851;43.434;28.338;2023-03-23T05:03:01;29.10;;;24.23;;
26086;SDS011;13851;43.434;28.338;2023-03-23T05:05:27;31.92;;;27.63;;
26086;SDS011;13851;43.434;28.338;2023-03-23T05:07:56;28.45;;;24.08;;
26086;SDS011;13851;43.434;28.338;2023-03-23T05:10:22;28.45;;;24.58;;
26086;SDS011;13851;43.434;28.338;2023-03-23T05:12:48;31.27;;;25.27;;
26086;SDS011;13851;43.434;28.338;2023-03-23T05:15:15;29.25;;;25.00;;
26086;SDS011;13851;43.434;28.338;2023-03-23T05:17:41;33.10;;;26.30;;
26086;SDS011;13851;43.434;28.338;2023-03-23T05:20:11;34.00;;;26.40;;
26086;SDS011;13851;43.434;28.338;2023-03-23T05:22:39;42.88;;;32.72;;
26086;SDS011;13851;43.434;28.338;2023-03-23T05:25:05;53.22;;;39.28;;
26086;SDS011;13851;43.434;28.338;2023-03-23T05:27:34;68.88;;;51.95;;
26086;SDS011;13851;43.434;28.338;2023-03-23T05:30:00;52.60;;;40.40;;
26086;SDS011;13851;43.434;28.338;2023-03-23T05:32:26;39.65;;;29.92;;
26086;SDS011;13851;43.434;28.338;2023-03-23T05:34:55;43.88;;;33.47;;
26086;SDS011;13851;43.434;28.338;2023-03-23T05:37:25;78.68;;;61.95;;
26086;SDS011;13851;43.434;28.338;2023-03-23T05:39:53;40.70;;;30.90;;
26086;SDS011;13851;43.434;28.338;2023-03-23T05:42:23;41.00;;;32.22;;
26086;SDS011;13851;43.434;28.338;2023-03-23T05:44:50;42.63;;;32.75;;
26086;SDS011;13851;43.434;28.338;2023-03-23T05:47:16;46.20;;;31.48;;
26086;SDS011;13851;43.434;28.338;2023-03-23T05:49:42;38.30;;;27.15;;
26086;SDS011;13851;43.434;28.338;2023-03-23T05:52:07;44.83;;;33.65;;
26086;SDS011;13851;43.434;28.338;2023-03-23T05:54:33;34.50;;;26.08;;
26086;SDS011;13851;43.434;28.338;2023-03-23T05:57:01;35.88;;;24.95;;
26086;SDS011;13851;43.434;28.338;2023-03-23T05:59:27;34.75;;;26.15;;
26086;SDS011;13851;43.434;28.338;2023-03-23T06:01:52;35.60;;;25.80;;
26086;SDS011;13851;43.434;28.338;2023-03-23T06:04:22;33.60;;;25.48;;
26086;SDS011;13851;43.434;28.338;2023-03-23T06:06:50;33.20;;;26.13;;
26086;SDS011;13851;43.434;28.338;2023-03-23T06:09:17;32.90;;;25.27;;
26086;SDS011;13851;43.434;28.338;2023-03-23T06:11:43;31.95;;;24.23;;
26086;SDS011;13851;43.434;28.338;2023-03-23T06:14:09;31.95;;;25.25;;
26086;SDS011;13851;43.434;28.338;2023-03-23T06:16:35;29.30;;;23.17;;
26086;SDS011;13851;43.434;28.338;2023-03-23T06:19:01;31.48;;;23.55;;
26086;SDS011;13851;43.434;28.338;2023-03-23T06:21:29;31.65;;;24.77;;
26086;SDS011;13851;43.434;28.338;2023-03-23T06:23:55;31.67;;;23.35;;
26086;SDS011;13851;43.434;28.338;2023-03-23T06:26:21;28.77;;;22.73;;
26086;SDS011;13851;43.434;28.338;2023-03-23T06:28:51;30.83;;;26.00;;
26086;SDS011;13851;43.434;28.338;2023-03-23T06:31:16;29.08;;;21.88;;
26086;SDS011;13851;43.434;28.338;2023-03-23T06:33:45;30.73;;;25.10;;
26086;SDS011;13851;43.434;28.338;2023-03-23T06:36:12;30.30;;;22.50;;
26086;SDS011;13851;43.434;28.338;2023-03-23T06:38:37;27.52;;;22.15;;
26086;SDS011;13851;43.434;28.338;2023-03-23T06:41:03;31.77;;;25.05;;
26086;SDS011;13851;43.434;28.338;2023-03-23T06:43:29;34.80;;;27.65;;
26086;SDS011;13851;43.434;28.338;2023-03-23T06:45:57;33.72;;;26.42;;
26086;SDS011;13851;43.434;28.338;2023-03-23T06:48:24;29.55;;;22.33;;
26086;SDS011;13851;43.434;28.338;2023-03-23T06:50:50;27.42;;;22.00;;
26086;SDS011;13851;43.434;28.338;2023-03-23T06:53:15;27.50;;;21.13;;
26086;SDS011;13851;43.434;28.338;2023-03-23T06:55:42;27.13;;;21.75;;
26086;SDS011;13851;43.434;28.338;2023-03-23T06:58:08;27.80;;;21.15;;
26086;SDS011;13851;43.434;28.338;2023-03-23T07:00:35;26.38;;;22.42;;
26086;SDS011;13851;43.434;28.338;2023-03-23T07:03:00;24.13;;;19.17;;
26086;SDS011;13851;43.434;28.338;2023-03-23T07:05:26;24.77;;;20.17;;
26086;SDS011;13851;43.434;28.338;2023-03-23T07:07:51;22.30;;;18.23;;
26086;SDS011;13851;43.434;28.338;2023-03-23T07:10:17;20.02;;;17.85;;
26086;SDS011;13851;43.434;28.338;2023-03-23T07:12:43;20.77;;;18.17;;
26086;SDS011;13851;43.434;28.338;2023-03-23T07:15:09;19.50;;;16.45;;
26086;SDS011;13851;43.434;28.338;2023-03-23T07:17:36;17.67;;;14.57;;
26086;SDS011;13851;43.434;28.338;2023-03-23T07:20:03;17.27;;;14.43;;
26086;SDS011;13851;43.434;28.338;2023-03-23T07:22:30;16.83;;;14.43;;
26086;SDS011;13851;43.434;28.338;2023-03-23T07:24:56;18.98;;;13.85;;
26086;SDS011;13851;43.434;28.338;2023-03-23T07:27:21;18.60;;;14.27;;
26086;SDS011;13851;43.434;28.338;2023-03-23T07:29:47;17.98;;;14.75;;
26086;SDS011;13851;43.434;28.338;2023-03-23T07:32:13;15.82;;;13.48;;
26086;SDS011;13851;43.434;28.338;2023-03-23T07:34:39;15.40;;;13.80;;
26086;SDS011;13851;43.434;28.338;2023-03-23T07:37:04;15.73;;;14.02;;
26086;SDS011;13851;43.434;28.338;2023-03-23T07:39:30;18.38;;;16.48;;
26086;SDS011;13851;43.434;28.338;2023-03-23T07:41:57;20.10;;;16.42;;
26086;SDS011;13851;43.434;28.338;2023-03-23T07:44:22;18.92;;;16.17;;
26086;SDS011;13851;43.434;28.338;2023-03-23T07:46:48;17.55;;;14.88;;
26086;SDS011;13851;43.434;28.338;2023-03-23T07:49:14;17.45;;;15.55;;
26086;SDS011;13851;43.434;28.338;2023-03-23T07:51:40;20.58;;;15.90;;
26086;SDS011;13851;43.434;28.338;2023-03-23T07:54:06;18.83;;;14.90;;
26086;SDS011;13851;43.434;28.338;2023-03-23T07:56:36;17.13;;;14.77;;
26086;SDS011;13851;43.434;28.338;2023-03-23T07:59:04;18.95;;;16.95;;
26086;SDS011;13851;43.434;28.338;2023-03-23T08:01:31;18.77;;;16.80;;
26086;SDS011;13851;43.434;28.338;2023-03-23T08:03:57;16.67;;;14.70;;
26086;SDS011;13851;43.434;28.338;2023-03-23T08:06:24;14.63;;;12.75;;
26086;SDS011;13851;43.434;28.338;2023-03-23T08:08:51;13.35;;;11.63;;
26086;SDS011;13851;43.434;28.338;2023-03-23T08:11:18;12.13;;;10.82;;
26086;SDS011;13851;43.434;28.338;2023-03-23T08:13:44;15.25;;;11.90;;
26086;SDS011;13851;43.434;28.338;2023-03-23T08:16:10;13.95;;;12.48;;
26086;SDS011;13851;43.434;28.338;2023-03-23T08:18:36;13.95;;;12.45;;
26086;SDS011;13851;43.434;28.338;2023-03-23T08:21:03;14.43;;;12.70;;
26086;SDS011;13851;43.434;28.338;2023-03-23T08:23:34;14.82;;;12.95;;
26086;SDS011;13851;43.434;28.338;2023-03-23T08:26:02;14.23;;;12.40;;
26086;SDS011;13851;43.434;28.338;2023-03-23T08:28:28;14.43;;;12.30;;
26086;SDS011;13851;43.434;28.338;2023-03-23T08:30:54;16.17;;;14.45;;
26086;SDS011;13851;43.434;28.338;2023-03-23T08:33:20;18.25;;;14.57;;
26086;SDS011;13851;43.434;28.338;2023-03-23T08:35:53;18.15;;;14.85;;
26086;SDS011;13851;43.434;28.338;2023-03-23T08:38:22;15.13;;;12.63;;
26086;SDS011;13851;43.434;28.338;2023-03-23T08:40:49;14.57;;;13.00;;
26086;SDS011;13851;43.434;28.338;2023-03-23T08:43:15;18.25;;;13.00;;
26086;SDS011;13851;43.434;28.338;2023-03-23T08:45:41;14.85;;;12.50;;
26086;SDS011;13851;43.434;28.338;2023-03-23T08:48:07;13.93;;;12.50;;
26086;SDS011;13851;43.434;28.338;2023-03-23T08:50:33;13.63;;;12.23;;
26086;SDS011;13851;43.434;28.338;2023-03-23T08:53:00;12.82;;;11.52;;
26086;SDS011;13851;43.434;28.338;2023-03-23T08:55:26;12.60;;;11.25;;
26086;SDS011;13851;43.434;28.338;2023-03-23T08:57:51;10.35;;;9.32;;
26086;SDS011;13851;43.434;28.338;2023-03-23T09:00:18;11.73;;;9.80;;
26086;SDS011;13851;43.434;28.338;2023-03-23T09:02:48;11.27;;;10.07;;
26086;SDS011;13851;43.434;28.338;2023-03-23T09:05:16;11.02;;;9.93;;
26086;SDS011;13851;43.434;28.338;2023-03-23T09:07:45;10.60;;;9.50;;
26086;SDS011;13851;43.434;28.338;2023-03-23T09:10:13;11.55;;;9.60;;
26086;SDS011;13851;43.434;28.338;2023-03-23T09:12:39;11.55;;;9.45;;
26086;SDS011;13851;43.434;28.338;2023-03-23T09:15:06;10.02;;;9.00;;
26086;SDS011;13851;43.434;28.338;2023-03-23T09:17:55;10.10;;;9.10;;
26086;SDS011;13851;43.434;28.338;2023-03-23T09:20:21;12.50;;;10.98;;
26086;SDS011;13851;43.434;28.338;2023-03-23T09:22:50;7.32;;;6.60;;
26086;SDS011;13851;43.434;28.338;2023-03-23T09:25:17;11.20;;;6.55;;
26086;SDS011;13851;43.434;28.338;2023-03-23T09:27:51;8.38;;;7.43;;
26086;SDS011;13851;43.434;28.338;2023-03-23T09:30:21;7.93;;;7.00;;
26086;SDS011;13851;43.434;28.338;2023-03-23T09:32:48;9.30;;;8.27;;
26086;SDS011;13851;43.434;28.338;2023-03-23T09:35:15;11.55;;;8.57;;
26086;SDS011;13851;43.434;28.338;2023-03-23T09:37:42;9.35;;;8.45;;
26086;SDS011;13851;43.434;28.338;2023-03-23T09:40:14;11.60;;;9.52;;
26086;SDS011;13851;43.434;28.338;2023-03-23T09:43:13;10.93;;;9.30;;
26086;SDS011;13851;43.434;28.338;2023-03-23T09:48:35;12.38;;;8.30;;
26086;SDS011;13851;43.434;28.338;2023-03-23T09:51:17;9.80;;;8.27;;
26086;SDS011;13851;43.434;28.338;2023-03-23T09:57:02;10.98;;;9.05;;
26086;SDS011;13851;43.434;28.338;2023-03-23T09:59:36;11.18;;;9.25;;
26086;SDS011;13851;43.434;28.338;2023-03-23T10:07:10;12.52;;;11.23;;
26086;SDS011;13851;43.434;28.338;2023-03-23T10:09:39;11.18;;;9.68;;
26086;SDS011;13851;43.434;28.338;2023-03-23T10:12:11;10.55;;;8.80;;
26086;SDS011;13851;43.434;28.338;2023-03-23T10:22:41;9.80;;;7.80;;
26086;SDS011;13851;43.434;28.338;2023-03-23T10:27:44;13.30;;;8.70;;
26086;SDS011;13851;43.434;28.338;2023-03-23T10:35:24;16.95;;;12.23;;
26086;SDS011;13851;43.434;28.338;2023-03-23T10:38:02;14.73;;;12.75;;
26086;SDS011;13851;43.434;28.338;2023-03-23T10:40:32;14.60;;;13.10;;
26086;SDS011;13851;43.434;28.338;2023-03-23T10:43:08;16.25;;;13.27;;
26086;SDS011;13851;43.434;28.338;2023-03-23T10:45:34;18.90;;;14.63;;
26086;SDS011;13851;43.434;28.338;2023-03-23T10:50:35;19.20;;;16.77;;
26086;SDS011;13851;43.434;28.338;2023-03-23T10:53:07;19.77;;;16.17;;
26086;SDS011;13851;43.434;28.338;2023-03-23T10:55:41;16.33;;;14.35;;
26086;SDS011;13851;43.434;28.338;2023-03-23T10:58:10;17.55;;;14.70;;
26086;SDS011;13851;43.434;28.338;2023-03-23T11:00:44;22.17;;;16.00;;
26086;SDS011;13851;43.434;28.338;2023-03-23T11:08:22;16.13;;;14.07;;
26086;SDS011;13851;43.434;28.338;2023-03-23T11:10:55;19.08;;;13.73;;
26086;SDS011;13851;43.434;28.338;2023-03-23T11:13:32;19.17;;;16.25;;
26086;SDS011;13851;43.434;28.338;2023-03-23T11:15:59;20.52;;;17.75;;
26086;SDS011;13851;43.434;28.338;2023-03-23T11:21:02;17.88;;;15.07;;
26086;SDS011;13851;43.434;28.338;2023-03-23T11:23:34;18.45;;;15.73;;
26086;SDS011;13851;43.434;28.338;2023-03-23T11:31:34;17.33;;;15.15;;
26086;SDS011;13851;43.434;28.338;2023-03-23T11:34:09;25.27;;;20.65;;
26086;SDS011;13851;43.434;28.338;2023-03-23T11:36:39;19.55;;;16.13;;
26086;SDS011;13851;43.434;28.338;2023-03-23T11:39:21;18.33;;;14.93;;
26086;SDS011;13851;43.434;28.338;2023-03-23T11:41:55;16.30;;;13.63;;
26086;SDS011;13851;43.434;28.338;2023-03-23T11:44:24;14.10;;;12.60;;
26086;SDS011;13851;43.434;28.338;2023-03-23T11:47:04;20.30;;;17.90;;
26086;SDS011;13851;43.434;28.338;2023-03-23T11:49:54;21.38;;;17.00;;
26086;SDS011;13851;43.434;28.338;2023-03-23T11:55:13;18.80;;;15.52;;
26086;SDS011;13851;43.434;28.338;2023-03-23T11:57:54;17.45;;;15.55;;
26086;SDS011;13851;43.434;28.338;2023-03-23T12:00:25;21.55;;;17.33;;
26086;SDS011;13851;43.434;28.338;2023-03-23T12:06:10;15.65;;;13.73;;
26086;SDS011;13851;43.434;28.338;2023-03-23T12:08:50;20.77;;;18.20;;
26086;SDS011;13851;43.434;28.338;2023-03-23T12:22:59;26.70;;;21.40;;
26086;SDS011;13851;43.434;28.338;2023-03-23T12:33:07;26.83;;;22.70;;
26086;SDS011;13851;43.434;28.338;2023-03-23T12:35:59;28.30;;;22.15;;
26086;SDS011;13851;43.434;28.338;2023-03-23T12:43:50;22.83;;;19.35;;
26086;SDS011;13851;43.434;28.338;2023-03-23T12:46:48;24.08;;;18.75;;
26086;SDS011;13851;43.434;28.338;2023-03-23T12:52:17;22.95;;;19.08;;
26086;SDS011;13851;43.434;28.338;2023-03-23T12:57:40;22.15;;;19.75;;
26086;SDS011;13851;43.434;28.338;2023-03-23T13:00:17;23.20;;;18.98;;
26086;SDS011;13851;43.434;28.338;2023-03-23T13:05:41;20.50;;;15.52;;
26086;SDS011;13851;43.434;28.338;2023-03-23T13:08:18;19.05;;;15.23;;
26086;SDS011;13851;43.434;28.338;2023-03-23T13:11:21;22.65;;;17.77;;
26086;SDS011;13851;43.434;28.338;2023-03-23T13:13:54;20.10;;;17.25;;
26086;SDS011;13851;43.434;28.338;2023-03-23T13:19:35;22.25;;;17.98;;
26086;SDS011;13851;43.434;28.338;2023-03-23T13:22:32;28.40;;;22.65;;
26086;SDS011;13851;43.434;28.338;2023-03-23T13:25:06;25.27;;;19.88;;
26086;SDS011;13851;43.434;28.338;2023-03-23T13:27:57;24.08;;;19.85;;
26086;SDS011;13851;43.434;28.338;2023-03-23T13:32:50;26.90;;;21.27;;
26086;SDS011;13851;43.434;28.338;2023-03-23T13:35:18;26.95;;;22.83;;
26086;SDS011;13851;43.434;28.338;2023-03-23T13:37:51;27.67;;;21.85;;
26086;SDS011;13851;43.434;28.338;2023-03-23T13:42:57;27.27;;;23.05;;
26086;SDS011;13851;43.434;28.338;2023-03-23T13:48:05;26.80;;;22.08;;
26086;SDS011;13851;43.434;28.338;2023-03-23T13:58:48;26.85;;;21.63;;
26086;SDS011;13851;43.434;28.338;2023-03-23T14:01:31;27.92;;;19.80;;
26086;SDS011;13851;43.434;28.338;2023-03-23T14:04:00;25.83;;;19.30;;
26086;SDS011;13851;43.434;28.338;2023-03-23T14:06:34;24.83;;;19.15;;
26086;SDS011;13851;43.434;28.338;2023-03-23T14:09:10;30.88;;;22.95;;
26086;SDS011;13851;43.434;28.338;2023-03-23T14:11:56;23.15;;;18.13;;
26086;SDS011;13851;43.434;28.338;2023-03-23T14:14:39;21.90;;;16.25;;
26086;SDS011;13851;43.434;28.338;2023-03-23T14:17:27;24.48;;;17.60;;
26086;SDS011;13851;43.434;28.338;2023-03-23T14:19:56;17.83;;;15.07;;
26086;SDS011;13851;43.434;28.338;2023-03-23T14:22:27;15.93;;;12.25;;
26086;SDS011;13851;43.434;28.338;2023-03-23T14:25:01;17.13;;;14.07;;
26086;SDS011;13851;43.434;28.338;2023-03-23T14:27:35;15.10;;;12.25;;
26086;SDS011;13851;43.434;28.338;2023-03-23T14:30:03;16.98;;;13.57;;
26086;SDS011;13851;43.434;28.338;2023-03-23T14:32:31;15.30;;;13.45;;
26086;SDS011;13851;43.434;28.338;2023-03-23T14:34:57;22.45;;;15.88;;
26086;SDS011;13851;43.434;28.338;2023-03-23T14:37:24;18.02;;;14.85;;
26086;SDS011;13851;43.434;28.338;2023-03-23T14:39:53;13.75;;;12.20;;
26086;SDS011;13851;43.434;28.338;2023-03-23T14:42:37;15.35;;;13.82;;
26086;SDS011;13851;43.434;28.338;2023-03-23T14:45:04;16.58;;;14.13;;
26086;SDS011;13851;43.434;28.338;2023-03-23T14:47:38;14.43;;;12.88;;
26086;SDS011;13851;43.434;28.338;2023-03-23T14:52:59;16.92;;;15.13;;
26086;SDS011;13851;43.434;28.338;2023-03-23T14:55:30;21.65;;;15.38;;
26086;SDS011;13851;43.434;28.338;2023-03-23T14:58:04;11.20;;;10.00;;
26086;SDS011;13851;43.434;28.338;2023-03-23T15:00:35;16.50;;;13.73;;
26086;SDS011;13851;43.434;28.338;2023-03-23T15:03:04;20.63;;;15.98;;
26086;SDS011;13851;43.434;28.338;2023-03-23T15:08:08;15.40;;;13.80;;
26086;SDS011;13851;43.434;28.338;2023-03-23T15:10:42;15.70;;;14.02;;
26086;SDS011;13851;43.434;28.338;2023-03-23T15:13:20;17.52;;;15.15;;
26086;SDS011;13851;43.434;28.338;2023-03-23T15:15:48;18.45;;;15.07;;
26086;SDS011;13851;43.434;28.338;2023-03-23T15:18:22;16.27;;;14.48;;
26086;SDS011;13851;43.434;28.338;2023-03-23T15:20:55;23.38;;;20.95;;
26086;SDS011;13851;43.434;28.338;2023-03-23T15:23:28;18.08;;;16.13;;
26086;SDS011;13851;43.434;28.338;2023-03-23T15:25:55;18.92;;;16.92;;
26086;SDS011;13851;43.434;28.338;2023-03-23T15:28:28;20.35;;;17.70;;
26086;SDS011;13851;43.434;28.338;2023-03-23T15:31:03;19.90;;;17.38;;
26086;SDS011;13851;43.434;28.338;2023-03-23T15:33:37;23.38;;;19.92;;
26086;SDS011;13851;43.434;28.338;2023-03-23T15:36:08;23.27;;;18.92;;
26086;SDS011;13851;43.434;28.338;2023-03-23T15:38:47;21.95;;;18.90;;
26086;SDS011;13851;43.434;28.338;2023-03-23T15:41:26;27.38;;;23.30;;
26086;SDS011;13851;43.434;28.338;2023-03-23T15:43:57;24.08;;;21.52;;
26086;SDS011;13851;43.434;28.338;2023-03-23T15:46:47;28.63;;;25.13;;
26086;SDS011;13851;43.434;28.338;2023-03-23T15:49:15;27.30;;;22.02;;
26086;SDS011;13851;43.434;28.338;2023-03-23T15:51:41;28.65;;;22.00;;
26086;SDS011;13851;43.434;28.338;2023-03-23T15:54:09;26.00;;;22.20;;
26086;SDS011;13851;43.434;28.338;2023-03-23T15:56:38;28.75;;;25.55;;
26086;SDS011;13851;43.434;28.338;2023-03-23T15:59:04;20.40;;;17.13;;
26086;SDS011;13851;43.434;28.338;2023-03-23T16:01:30;26.38;;;20.15;;
26086;SDS011;13851;43.434;28.338;2023-03-23T16:03:58;19.83;;;16.88;;
26086;SDS011;13851;43.434;28.338;2023-03-23T16:06:29;18.23;;;15.27;;
26086;SDS011;13851;43.434;28.338;2023-03-23T16:08:56;18.60;;;16.60;;
26086;SDS011;13851;43.434;28.338;2023-03-23T16:11:26;23.02;;;19.25;;
26086;SDS011;13851;43.434;28.338;2023-03-23T16:13:52;18.25;;;15.73;;
26086;SDS011;13851;43.434;28.338;2023-03-23T16:16:22;19.10;;;16.65;;
26086;SDS011;13851;43.434;28.338;2023-03-23T16:18:51;16.27;;;14.57;;
26086;SDS011;13851;43.434;28.338;2023-03-23T16:21:16;17.65;;;14.65;;
26086;SDS011;13851;43.434;28.338;2023-03-23T16:23:42;23.15;;;18.52;;
26086;SDS011;13851;43.434;28.338;2023-03-23T16:26:10;44.33;;;33.72;;
26086;SDS011;13851;43.434;28.338;2023-03-23T16:28:36;59.03;;;39.42;;